Time;durP1;ratioP1;P1;durP2;ratioP2;P2;SDS_P1;SDS_P2;PMS_P1;PMS_P2;Temp;Humidity;BMP_temperature;BMP_pressure;BME280_temperature;BME280_humidity;BME280_pressure;Samples;Min_cycle;Max_cycle;Signal;HPM_P1;HPM_P2
2022/06/19 00:02:01;;;;;;;;;;;;;;;30.98;85.15;98225.63;5042324;28;19977;-54
2022/06/19 00:04:26;;;;;;;;;;;;;;;29.41;94.64;98225.91;5021135;28;19924;-54
2022/06/19 00:06:52;;;;;;;;;;;;;;;29.80;93.75;98224.66;5041159;28;19920;-54
2022/06/19 00:09:17;;;;;;;;;;;;;;;31.26;85.48;98209.53;5019974;28;20801;-55
2022/06/19 00:11:42;;;;;;;;;;;;;;;31.44;83.80;98211.66;5044060;28;20338;-54
2022/06/19 00:14:08;;;;;;;;;;;;;;;30.70;87.06;98200.94;5042827;28;19939;-55
2022/06/19 00:16:33;;;;;;;;;;;;;;;30.99;85.26;98194.53;5040165;28;19917;-54
2022/06/19 00:18:58;;;;;;;;;;;;;;;29.57;91.63;98188.50;5041483;28;20002;-55
2022/06/19 00:21:23;;;;;;;;;;;;;;;29.89;90.55;98183.69;5042894;28;20309;-55
2022/06/19 00:23:49;;;;;;;;;;;;;;;29.58;93.28;98184.84;5036906;28;19956;-55
2022/06/19 00:26:14;;;;;;;;;;;;;;;30.60;87.79;98177.41;5035529;28;20006;-55
2022/06/19 00:28:40;;;;;;;;;;;;;;;30.87;86.91;98169.56;5037483;28;19948;-53
2022/06/19 00:31:06;;;;;;;;;;;;;;;30.17;90.36;98166.91;5041036;28;20398;-55
2022/06/19 00:33:31;;;;;;;;;;;;;;;30.14;92.26;98151.38;5041150;28;19927;-55
2022/06/19 00:35:56;;;;;;;;;;;;;;;30.20;92.71;98145.31;5042316;28;19921;-55
2022/06/19 00:38:22;;;;;;;;;;;;;;;30.44;90.95;98139.50;5042426;28;19921;-55
2022/06/19 00:40:47;;;;;;;;;;;;;;;30.16;89.65;98144.03;5042948;28;20313;-55
2022/06/19 00:43:12;;;;;;;;;;;;;;;30.84;86.75;98130.88;5044729;28;19921;-55
2022/06/19 00:45:39;;;;;;;;;;;;;;;29.79;91.67;98124.81;5043218;28;19932;-55
2022/06/19 00:48:14;;;;;;;;;;;;;;;30.42;89.29;98112.31;5041983;28;19926;-55
2022/06/19 00:50:40;;;;;;;;;;;;;;;30.21;90.97;98115.06;5024812;28;20336;-55
2022/06/19 00:53:06;;;;;;;;;;;;;;;30.72;86.76;98104.03;5021652;28;19928;-55
2022/06/19 00:55:32;;;;;;;;;;;;;;;30.52;86.38;98105.81;5044216;28;20402;-55
2022/06/19 00:58:07;;;;;;;;;;;;;;;30.58;84.91;98087.22;5026717;28;20277;-54
2022/06/19 01:00:32;;;;;;;;;;;;;;;30.78;85.45;98089.13;5040846;28;19925;-55
2022/06/19 01:03:17;;;;;;;;;;;;;;;30.75;83.80;98084.22;5045123;28;19995;-53
2022/06/19 01:05:42;;;;;;;;;;;;;;;30.88;83.83;98073.63;5026760;28;19970;-55
2022/06/19 01:08:08;;;;;;;;;;;;;;;30.63;85.98;98070.69;5029642;28;20037;-55
2022/06/19 01:10:34;;;;;;;;;;;;;;;30.52;86.86;98068.59;5044386;28;20001;-54
2022/06/19 01:12:59;;;;;;;;;;;;;;;30.56;85.02;98057.41;5026835;28;19936;-55
2022/06/19 01:15:25;;;;;;;;;;;;;;;30.64;86.50;98051.06;5047356;28;19916;-55
2022/06/19 01:17:51;;;;;;;;;;;;;;;30.70;86.67;98047.63;5045486;28;19920;-56
2022/06/19 01:20:17;;;;;;;;;;;;;;;30.76;87.48;98043.31;5026964;28;19920;-56
2022/06/19 01:22:42;;;;;;;;;;;;;;;30.78;86.92;98046.59;5047068;28;19949;-54
2022/06/19 01:25:14;;;;;;;;;;;;;;;30.03;87.64;98060.63;5048910;28;20015;-54
2022/06/19 01:30:28;;;;;;;;;;;;;;;26.72;100.00;98074.09;5030502;28;19927;-55
2022/06/19 01:32:53;;;;;;;;;;;;;;;26.71;100.00;98075.94;5028059;28;19953;-55
2022/06/19 01:35:19;;;;;;;;;;;;;;;26.34;100.00;98069.47;5027054;28;19920;-55
2022/06/19 01:37:45;;;;;;;;;;;;;;;26.62;100.00;98069.88;5027111;28;19916;-54
2022/06/19 01:40:23;;;;;;;;;;;;;;;26.61;100.00;98077.97;5045025;28;19924;-56
2022/06/19 01:42:48;;;;;;;;;;;;;;;28.49;100.00;98062.19;5025518;28;19944;-56
2022/06/19 01:45:14;;;;;;;;;;;;;;;28.75;100.00;98051.88;5026800;28;20008;-55
2022/06/19 01:47:40;;;;;;;;;;;;;;;28.65;100.00;98051.38;5027436;28;20021;-56
2022/06/19 01:50:07;;;;;;;;;;;;;;;28.77;100.00;98054.34;5044950;28;20198;-57
2022/06/19 01:52:32;;;;;;;;;;;;;;;28.70;100.00;98048.97;5026630;28;19966;-54
2022/06/19 01:55:04;;;;;;;;;;;;;;;28.37;100.00;98043.25;5025413;28;19920;-53
2022/06/19 01:57:30;;;;;;;;;;;;;;;29.22;100.00;98033.78;5043543;28;19927;-55
2022/06/19 01:59:55;;;;;;;;;;;;;;;29.36;99.87;98042.66;5029252;28;19925;-55
2022/06/19 02:02:23;;;;;;;;;;;;;;;29.52;98.59;98038.88;5009382;28;20222;-54
2022/06/19 02:04:48;;;;;;;;;;;;;;;29.32;99.64;98047.50;5008410;28;19924;-55
2022/06/19 02:07:21;;;;;;;;;;;;;;;29.03;100.00;98053.75;5026377;28;19955;-55
2022/06/19 02:09:46;;;;;;;;;;;;;;;29.26;100.00;98052.75;5025689;28;19921;-54
2022/06/19 02:12:12;;;;;;;;;;;;;;;29.01;100.00;98052.31;5045422;28;19928;-54
2022/06/19 02:14:37;;;;;;;;;;;;;;;29.08;100.00;98050.56;5043055;28;19943;-53
2022/06/19 02:17:07;;;;;;;;;;;;;;;29.06;100.00;98056.03;5044455;28;20016;-55
2022/06/19 02:19:32;;;;;;;;;;;;;;;28.87;100.00;98048.72;5028753;28;19917;-55
2022/06/19 02:21:57;;;;;;;;;;;;;;;29.32;99.05;98052.00;5043310;28;20041;-55
2022/06/19 02:24:24;;;;;;;;;;;;;;;28.93;98.68;98043.47;5043645;28;19964;-56
2022/06/19 02:26:49;;;;;;;;;;;;;;;28.21;100.00;98038.19;5044509;28;19917;-55
2022/06/19 02:29:17;;;;;;;;;;;;;;;28.80;100.00;98026.63;5027000;28;20898;-55
2022/06/19 02:31:42;;;;;;;;;;;;;;;28.43;100.00;98026.63;5027497;28;19928;-55
2022/06/19 02:34:12;;;;;;;;;;;;;;;28.85;100.00;98013.63;5028913;28;19920;-55
2022/06/19 02:36:37;;;;;;;;;;;;;;;29.21;97.21;98002.13;5026836;28;19960;-56
2022/06/19 02:39:24;;;;;;;;;;;;;;;28.95;99.58;97995.59;5041724;28;20030;-55
2022/06/19 02:41:52;;;;;;;;;;;;;;;28.98;98.20;98003.16;5025462;28;19921;-56
2022/06/19 02:44:17;;;;;;;;;;;;;;;28.80;99.51;98003.59;5025380;28;19921;-56
2022/06/19 02:46:43;;;;;;;;;;;;;;;28.43;100.00;97999.34;5043095;28;19924;-56
2022/06/19 02:49:08;;;;;;;;;;;;;;;27.53;100.00;97999.44;5042818;28;19924;-55
2022/06/19 02:51:33;;;;;;;;;;;;;;;28.12;100.00;97984.53;5042257;28;19925;-55
2022/06/19 02:53:58;;;;;;;;;;;;;;;28.27;100.00;97985.31;5044665;28;19927;-55
2022/06/19 02:56:24;;;;;;;;;;;;;;;27.91;100.00;97983.47;5041686;28;20012;-54
2022/06/19 02:58:49;;;;;;;;;;;;;;;27.87;100.00;97987.50;5041904;28;19920;-55
2022/06/19 03:01:15;;;;;;;;;;;;;;;28.50;100.00;97992.31;5043865;28;19928;-55
2022/06/19 03:03:40;;;;;;;;;;;;;;;28.63;100.00;97997.75;5045920;28;19916;-54
2022/06/19 03:06:05;;;;;;;;;;;;;;;28.52;100.00;97998.25;5042895;28;20372;-55
2022/06/19 03:08:31;;;;;;;;;;;;;;;27.27;100.00;98006.97;5042881;28;19913;-54
2022/06/19 03:10:56;;;;;;;;;;;;;;;27.90;100.00;98004.84;5045325;28;20741;-55
2022/06/19 03:13:22;;;;;;;;;;;;;;;27.24;100.00;97994.94;5026570;28;19920;-55
2022/06/19 03:15:47;;;;;;;;;;;;;;;27.53;100.00;97990.69;5043528;28;19921;-56
2022/06/19 03:18:12;;;;;;;;;;;;;;;27.12;100.00;97991.88;5041112;28;20480;-54
2022/06/19 03:20:38;;;;;;;;;;;;;;;26.74;100.00;97990.22;5042337;28;19921;-56
2022/06/19 03:23:03;;;;;;;;;;;;;;;26.51;100.00;97983.09;5043347;28;19921;-55
2022/06/19 03:25:28;;;;;;;;;;;;;;;26.45;100.00;97989.88;5040497;28;19916;-53
2022/06/19 03:27:53;;;;;;;;;;;;;;;25.92;100.00;98009.16;5042132;28;19946;-55
2022/06/19 03:30:19;;;;;;;;;;;;;;;26.65;100.00;98005.31;5042789;28;19975;-52
2022/06/19 03:32:45;;;;;;;;;;;;;;;27.24;100.00;97988.84;5044850;28;19944;-55
2022/06/19 03:35:10;;;;;;;;;;;;;;;27.17;100.00;97986.06;5041126;28;19921;-55
2022/06/19 03:37:35;;;;;;;;;;;;;;;27.79;100.00;97989.41;5043496;28;19924;-56
2022/06/19 03:40:01;;;;;;;;;;;;;;;26.90;100.00;97992.75;5041422;28;20078;-55
2022/06/19 03:42:26;;;;;;;;;;;;;;;27.53;100.00;97982.75;5022984;28;19966;-55
2022/06/19 03:44:51;;;;;;;;;;;;;;;27.05;100.00;97990.97;5043450;28;20289;-57
2022/06/19 03:47:21;;;;;;;;;;;;;;;27.57;100.00;97978.72;5042505;28;20475;-55
2022/06/19 03:49:47;;;;;;;;;;;;;;;27.82;100.00;97966.03;5043737;28;19963;-55
2022/06/19 03:52:12;;;;;;;;;;;;;;;27.69;100.00;97971.16;5022471;28;20307;-54
2022/06/19 03:54:37;;;;;;;;;;;;;;;27.70;100.00;97978.09;5038537;28;20470;-52
2022/06/19 03:57:03;;;;;;;;;;;;;;;27.86;100.00;97975.28;5042115;28;20339;-56
2022/06/19 03:59:28;;;;;;;;;;;;;;;27.70;100.00;97972.78;5039495;28;20002;-55
2022/06/19 04:01:54;;;;;;;;;;;;;;;28.03;100.00;97973.25;5041527;28;19928;-55
2022/06/19 04:04:19;;;;;;;;;;;;;;;26.79;100.00;98007.19;5041370;28;19920;-56
2022/06/19 04:06:44;;;;;;;;;;;;;;;24.40;100.00;98040.28;5041613;28;19921;-56
2022/06/19 04:09:13;;;;;;;;;;;;;;;23.45;100.00;98033.41;5039322;28;19920;-56
2022/06/19 04:11:39;;;;;;;;;;;;;;;23.74;100.00;98015.53;5040540;28;19921;-55
2022/06/19 04:14:04;;;;;;;;;;;;;;;24.17;100.00;98029.50;5041766;28;19978;-55
2022/06/19 04:16:30;;;;;;;;;;;;;;;23.31;100.00;98037.41;5041455;28;19928;-56
2022/06/19 04:18:56;;;;;;;;;;;;;;;23.95;100.00;98024.84;5041949;28;19928;-56
2022/06/19 04:21:23;;;;;;;;;;;;;;;26.21;100.00;98008.53;5023086;28;19920;-56
2022/06/19 04:23:50;;;;;;;;;;;;;;;26.32;100.00;98033.69;5044125;28;19920;-56
2022/06/19 04:26:16;;;;;;;;;;;;;;;23.10;100.00;98053.50;5045055;28;20389;-56
2022/06/19 04:28:41;;;;;;;;;;;;;;;23.96;100.00;98043.06;5043181;28;19920;-56
2022/06/19 04:31:06;;;;;;;;;;;;;;;26.06;100.00;98043.53;5043879;28;20164;-56
2022/06/19 04:33:38;;;;;;;;;;;;;;;23.42;100.00;98099.41;5041585;28;19921;-56
2022/06/19 04:36:04;;;;;;;;;;;;;;;22.55;100.00;98105.09;5041604;28;19924;-55
2022/06/19 04:38:29;;;;;;;;;;;;;;;22.74;100.00;98113.88;5047111;28;19946;-56
2022/06/19 04:40:55;;;;;;;;;;;;;;;22.32;100.00;98114.34;5044992;28;19921;-56
2022/06/19 04:43:20;;;;;;;;;;;;;;;22.47;100.00;98112.09;5045077;28;19912;-56
2022/06/19 04:45:45;;;;;;;;;;;;;;;21.92;100.00;98128.56;5048868;28;19921;-54
2022/06/19 04:48:11;;;;;;;;;;;;;;;22.50;100.00;98127.53;5045011;28;20515;-57
2022/06/19 04:50:36;;;;;;;;;;;;;;;21.40;100.00;98138.56;5044494;28;20396;-55
2022/06/19 04:53:02;;;;;;;;;;;;;;;22.42;100.00;98120.41;5042157;28;19939;-57
2022/06/19 04:55:27;;;;;;;;;;;;;;;21.82;100.00;98146.09;5046118;28;20603;-55
2022/06/19 04:57:52;;;;;;;;;;;;;;;21.91;100.00;98138.19;5046303;28;19920;-56
2022/06/19 05:00:19;;;;;;;;;;;;;;;22.61;100.00;98127.34;5044891;28;19917;-56
2022/06/19 05:02:47;;;;;;;;;;;;;;;21.83;100.00;98147.78;5047058;28;19925;-55
2022/06/19 05:05:14;;;;;;;;;;;;;;;22.46;100.00;98145.34;5047239;28;19943;-56
2022/06/19 05:07:40;;;;;;;;;;;;;;;21.78;100.00;98155.19;5045769;28;19921;-56
2022/06/19 05:10:05;;;;;;;;;;;;;;;21.88;100.00;98163.88;5044216;28;19928;-54
2022/06/19 05:12:30;;;;;;;;;;;;;;;21.91;100.00;98155.72;5043092;28;19928;-57
2022/06/19 05:14:56;;;;;;;;;;;;;;;22.14;100.00;98167.53;5046521;28;20339;-56
2022/06/19 05:17:21;;;;;;;;;;;;;;;22.11;100.00;98188.81;5044488;28;20485;-56
2022/06/19 05:19:46;;;;;;;;;;;;;;;22.40;100.00;98189.69;5045517;28;20707;-56
2022/06/19 05:22:11;;;;;;;;;;;;;;;21.63;100.00;98192.34;5043333;28;19928;-56
2022/06/19 05:24:37;;;;;;;;;;;;;;;21.04;100.00;98216.78;5028601;28;19920;-56
2022/06/19 05:27:09;;;;;;;;;;;;;;;21.85;100.00;98206.09;5045345;28;20046;-56
2022/06/19 05:29:35;;;;;;;;;;;;;;;20.99;100.00;98198.06;5045148;28;19935;-56
2022/06/19 05:32:00;;;;;;;;;;;;;;;20.94;100.00;98216.78;5046236;28;19925;-56
2022/06/19 05:34:25;;;;;;;;;;;;;;;21.07;100.00;98211.28;5046105;28;19917;-56
2022/06/19 05:36:50;;;;;;;;;;;;;;;21.07;100.00;98208.66;5045697;28;20008;-56
2022/06/19 05:39:16;;;;;;;;;;;;;;;21.00;100.00;98228.50;5043954;28;19960;-56
2022/06/19 05:41:41;;;;;;;;;;;;;;;21.63;100.00;98229.00;5043896;28;19956;-56
2022/06/19 05:44:07;;;;;;;;;;;;;;;21.16;100.00;98220.94;5046320;28;19928;-55
2022/06/19 05:46:32;;;;;;;;;;;;;;;21.85;100.00;98208.72;5047513;28;19951;-56
2022/06/19 05:48:57;;;;;;;;;;;;;;;22.02;100.00;98189.66;5044044;28;20668;-56
2022/06/19 05:51:23;;;;;;;;;;;;;;;23.14;100.00;98178.28;5044007;28;19981;-56
2022/06/19 05:53:50;;;;;;;;;;;;;;;23.51;100.00;98170.25;5027849;28;20015;-56
2022/06/19 05:56:15;;;;;;;;;;;;;;;24.31;100.00;98167.53;5043435;28;19931;-56
2022/06/19 05:58:41;;;;;;;;;;;;;;;25.22;100.00;98173.97;5042099;28;19924;-57
2022/06/19 06:01:07;;;;;;;;;;;;;;;24.72;100.00;98180.06;5043774;28;19970;-57
2022/06/19 06:03:32;;;;;;;;;;;;;;;23.37;100.00;98179.50;5043717;28;19917;-57
2022/06/19 06:06:01;;;;;;;;;;;;;;;23.52;100.00;98187.69;5044903;28;19920;-57
2022/06/19 06:08:26;;;;;;;;;;;;;;;23.74;100.00;98204.84;5047325;28;19920;-57
2022/06/19 06:10:52;;;;;;;;;;;;;;;23.45;100.00;98212.09;5040816;28;19967;-57
2022/06/19 06:13:17;;;;;;;;;;;;;;;23.63;100.00;98197.16;5044938;28;19924;-57
2022/06/19 06:15:44;;;;;;;;;;;;;;;24.12;100.00;98208.03;5043790;28;19920;-57
2022/06/19 06:18:09;;;;;;;;;;;;;;;23.63;100.00;98215.56;5024937;28;20007;-56
2022/06/19 06:20:34;;;;;;;;;;;;;;;22.68;100.00;98245.69;5043800;28;19917;-57
2022/06/19 06:22:59;;;;;;;;;;;;;;;22.19;100.00;98223.97;5044725;28;20010;-56
2022/06/19 06:25:24;;;;;;;;;;;;;;;22.85;100.00;98196.81;5043568;28;20298;-57
2022/06/19 06:27:50;;;;;;;;;;;;;;;22.76;100.00;98235.28;5041707;28;21321;-55
2022/06/19 06:30:15;;;;;;;;;;;;;;;23.09;100.00;98238.34;5045942;28;19990;-56
2022/06/19 06:32:40;;;;;;;;;;;;;;;23.05;100.00;98236.97;5045029;28;19921;-57
2022/06/19 06:35:06;;;;;;;;;;;;;;;22.72;100.00;98220.81;5042665;28;19925;-57
2022/06/19 06:37:31;;;;;;;;;;;;;;;22.76;100.00;98220.38;5045219;28;20002;-56
2022/06/19 06:39:56;;;;;;;;;;;;;;;24.05;100.00;98209.66;5042626;28;19976;-56
2022/06/19 06:42:22;;;;;;;;;;;;;;;24.55;100.00;98201.06;5045989;28;19924;-56
2022/06/19 06:44:47;;;;;;;;;;;;;;;24.75;100.00;98195.59;5043107;28;19920;-57
2022/06/19 06:47:12;;;;;;;;;;;;;;;23.98;100.00;98214.69;5043289;28;19974;-56
2022/06/19 06:49:37;;;;;;;;;;;;;;;25.13;100.00;98190.72;5042689;28;20019;-56
2022/06/19 06:52:07;;;;;;;;;;;;;;;25.79;93.70;98195.09;5044149;28;19956;-57
2022/06/19 06:54:34;;;;;;;;;;;;;;;25.74;93.67;98186.03;5042825;28;19987;-57
2022/06/19 06:56:59;;;;;;;;;;;;;;;26.11;89.38;98151.22;5042807;28;19924;-57
2022/06/19 06:59:24;;;;;;;;;;;;;;;25.21;89.61;98132.81;5040881;28;19921;-56
2022/06/19 07:01:50;;;;;;;;;;;;;;;26.92;85.00;98160.66;5043521;28;19917;-57
2022/06/19 07:04:15;;;;;;;;;;;;;;;28.10;83.12;98156.78;5042002;28;19924;-57
2022/06/19 07:06:40;;;;;;;;;;;;;;;25.98;86.81;98135.09;5041296;28;19931;-57
2022/06/19 07:09:07;;;;;;;;;;;;;;;25.83;89.49;98158.66;5041742;28;19927;-57
2022/06/19 07:11:34;;;;;;;;;;;;;;;27.64;83.48;98153.41;5043077;28;19916;-57
2022/06/19 07:13:59;;;;;;;;;;;;;;;27.88;76.44;98129.38;5044709;28;19923;-56
2022/06/19 07:16:24;;;;;;;;;;;;;;;25.69;90.20;98139.06;5043722;28;19920;-56
2022/06/19 07:18:49;;;;;;;;;;;;;;;25.26;92.95;98146.31;5042064;28;19924;-56
2022/06/19 07:21:15;;;;;;;;;;;;;;;27.35;83.33;98120.59;5042870;28;19920;-56
2022/06/19 07:23:40;;;;;;;;;;;;;;;26.21;93.56;98099.06;5043418;28;20080;-55
2022/06/19 07:26:10;;;;;;;;;;;;;;;25.92;93.82;98102.28;5045168;28;19923;-56
2022/06/19 07:28:35;;;;;;;;;;;;;;;25.71;96.45;98109.91;5045381;28;19920;-56
2022/06/19 07:31:00;;;;;;;;;;;;;;;25.92;89.97;98106.75;5044553;28;19916;-55
2022/06/19 07:33:26;;;;;;;;;;;;;;;25.50;99.92;98105.97;5043229;28;19928;-56
2022/06/19 07:35:51;;;;;;;;;;;;;;;24.82;100.00;98099.16;5043541;28;20448;-56
2022/06/19 07:38:17;;;;;;;;;;;;;;;26.60;95.86;98093.00;5045387;28;20901;-58
2022/06/19 07:40:42;;;;;;;;;;;;;;;26.06;96.93;98095.50;5042454;28;20324;-56
2022/06/19 07:43:07;;;;;;;;;;;;;;;28.10;81.94;98110.94;5041804;28;19920;-56
2022/06/19 07:45:33;;;;;;;;;;;;;;;28.98;76.62;98135.69;5025328;28;19927;-57
2022/06/19 07:50:42;;;;;;;;;;;;;;;28.27;81.16;98160.06;5041147;28;19931;-56
2022/06/19 07:53:07;;;;;;;;;;;;;;;28.27;83.68;98168.00;5022662;28;19921;-57
2022/06/19 07:55:32;;;;;;;;;;;;;;;28.88;79.93;98182.88;5041576;28;20249;-57
2022/06/19 07:57:58;;;;;;;;;;;;;;;26.97;93.21;98194.47;5041402;28;20727;-56
2022/06/19 08:00:25;;;;;;;;;;;;;;;28.08;85.28;98192.41;5042278;28;19920;-57
2022/06/19 08:02:51;;;;;;;;;;;;;;;27.80;87.36;98200.88;5041019;28;19943;-57
2022/06/19 08:05:17;;;;;;;;;;;;;;;27.46;90.21;98207.44;5041467;28;20543;-56
2022/06/19 08:07:43;;;;;;;;;;;;;;;27.22;91.60;98234.03;5043204;28;19943;-57
2022/06/19 08:10:08;;;;;;;;;;;;;;;25.78;98.00;98254.13;5040436;28;20483;-56
2022/06/19 08:12:34;;;;;;;;;;;;;;;26.51;98.07;98241.88;5045139;28;19929;-57
2022/06/19 08:14:59;;;;;;;;;;;;;;;25.50;100.00;98281.75;5045531;28;20372;-56
2022/06/19 08:17:24;;;;;;;;;;;;;;;25.07;100.00;98312.59;5041785;28;20262;-56
2022/06/19 08:19:49;;;;;;;;;;;;;;;24.73;100.00;98345.81;5044412;28;19928;-56
2022/06/19 08:22:14;;;;;;;;;;;;;;;24.18;100.00;98372.38;5018936;28;19927;-57
2022/06/19 08:24:40;;;;;;;;;;;;;;;24.21;100.00;98369.41;5043773;28;19932;-56
2022/06/19 08:27:05;;;;;;;;;;;;;;;24.98;100.00;98386.31;5042827;28;19955;-56
2022/06/19 08:29:31;;;;;;;;;;;;;;;24.32;100.00;98376.25;5041193;28;20057;-56
2022/06/19 08:31:56;;;;;;;;;;;;;;;23.99;100.00;98376.81;5042855;28;19921;-56
2022/06/19 08:34:21;;;;;;;;;;;;;;;24.08;100.00;98403.97;5043013;28;19946;-56
2022/06/19 08:36:46;;;;;;;;;;;;;;;23.57;100.00;98431.69;5041148;28;19921;-57
2022/06/19 08:39:13;;;;;;;;;;;;;;;23.70;100.00;98415.56;5041927;28;19916;-56
2022/06/19 08:41:41;;;;;;;;;;;;;;;24.20;100.00;98407.25;5025562;28;20054;-56
2022/06/19 08:44:06;;;;;;;;;;;;;;;24.38;100.00;98394.06;5043112;28;20381;-38
2022/06/19 08:46:50;;;;;;;;;;;;;;;24.51;100.00;98431.38;5043786;28;20002;-38
2022/06/19 08:49:35;;;;;;;;;;;;;;;24.42;100.00;98417.28;5042487;28;20110;-38
2022/06/19 08:52:09;;;;;;;;;;;;;;;24.47;100.00;98408.97;5042005;28;20382;-38
2022/06/19 08:54:37;;;;;;;;;;;;;;;23.98;100.00;98414.59;5043334;28;20287;-38
2022/06/19 08:57:21;;;;;;;;;;;;;;;24.25;100.00;98435.75;5042212;28;19921;-38
2022/06/19 08:59:52;;;;;;;;;;;;;;;24.08;100.00;98447.88;5042310;28;19973;-38
2022/06/19 09:02:21;;;;;;;;;;;;;;;25.64;98.47;98413.00;5043175;28;20834;-38
2022/06/19 09:07:53;;;;;;;;;;;;;;;25.02;98.10;98406.09;5026902;28;20280;-38
2022/06/19 09:10:18;;;;;;;;;;;;;;;24.82;97.45;98417.81;5041823;28;20370;-38
2022/06/19 09:12:48;;;;;;;;;;;;;;;25.44;96.02;98420.31;5032952;28;19929;-38
2022/06/19 09:15:18;;;;;;;;;;;;;;;26.20;91.82;98415.94;5022299;28;19921;-38
2022/06/19 09:17:46;;;;;;;;;;;;;;;26.11;91.05;98430.94;5040348;28;19917;-38
2022/06/19 09:20:20;;;;;;;;;;;;;;;25.38;93.40;98434.94;5037813;28;19924;-38
2022/06/19 09:22:59;;;;;;;;;;;;;;;27.50;85.43;98417.63;5020630;28;19927;-38
2022/06/19 09:25:24;;;;;;;;;;;;;;;25.51;90.51;98420.53;5043914;28;20763;-37
2022/06/19 09:28:01;;;;;;;;;;;;;;;26.54;87.06;98421.09;5042866;28;19920;-38
2022/06/19 09:30:27;;;;;;;;;;;;;;;25.34;90.88;98438.06;5043700;28;19967;-38
2022/06/19 09:32:57;;;;;;;;;;;;;;;25.48;91.96;98445.41;5044639;28;19925;-38
2022/06/19 09:35:25;;;;;;;;;;;;;;;26.05;90.72;98436.88;5045125;28;19976;-38
2022/06/19 09:37:56;;;;;;;;;;;;;;;25.34;90.41;98438.91;5027420;28;19967;-37
2022/06/19 09:40:39;;;;;;;;;;;;;;;25.50;91.87;98450.50;5020049;28;20275;-38
2022/06/19 09:43:23;;;;;;;;;;;;;;;26.05;89.10;98442.16;5024261;28;19958;-38
2022/06/19 09:46:05;;;;;;;;;;;;;;;27.00;85.65;98447.00;5044694;28;19948;-38
2022/06/19 09:48:30;;;;;;;;;;;;;;;28.45;77.66;98439.66;5027360;28;19917;-38
2022/06/19 09:51:00;;;;;;;;;;;;;;;27.60;79.02;98435.97;5044247;28;19935;-38
2022/06/19 09:53:28;;;;;;;;;;;;;;;27.04;84.11;98446.50;5025037;28;19951;-38
2022/06/19 09:56:04;;;;;;;;;;;;;;;28.25;77.73;98442.75;5020263;28;19921;-38
2022/06/19 09:58:47;;;;;;;;;;;;;;;26.83;84.62;98435.66;5026144;28;20016;-38
2022/06/19 10:01:12;;;;;;;;;;;;;;;26.82;83.05;98423.41;5027925;28;19927;-38
2022/06/19 10:03:40;;;;;;;;;;;;;;;27.63;81.45;98400.41;5042986;28;19983;-38
2022/06/19 10:06:10;;;;;;;;;;;;;;;27.57;78.44;98401.09;5041873;28;19924;-38
2022/06/19 10:08:45;;;;;;;;;;;;;;;27.17;80.47;98402.88;5025545;28;19921;-38
2022/06/19 10:11:12;;;;;;;;;;;;;;;28.80;73.32;98387.03;5041753;28;19916;-38
2022/06/19 10:13:56;;;;;;;;;;;;;;;29.58;68.56;98385.66;5018353;28;20261;-38
2022/06/19 10:16:28;;;;;;;;;;;;;;;29.85;65.45;98394.78;5043621;28;19920;-38
2022/06/19 10:18:54;;;;;;;;;;;;;;;28.38;73.81;98383.09;5026188;28;19984;-38
2022/06/19 10:24:17;;;;;;;;;;;;;;;29.67;66.01;98351.88;5040412;28;20717;-38
2022/06/19 10:26:47;;;;;;;;;;;;;;;29.31;68.31;98371.25;5043937;28;19928;-38
2022/06/19 10:29:25;;;;;;;;;;;;;;;30.52;61.30;98364.41;5024864;28;19925;-38
2022/06/19 10:31:50;;;;;;;;;;;;;;;30.48;62.22;98370.28;5042041;28;19921;-38
2022/06/19 10:34:22;;;;;;;;;;;;;;;30.00;63.15;98369.00;5043755;28;19924;-38
2022/06/19 10:36:51;;;;;;;;;;;;;;;30.33;63.11;98357.91;5024165;28;19999;-38
2022/06/19 10:39:32;;;;;;;;;;;;;;;30.18;63.38;98359.78;5024416;28;19924;-38
2022/06/19 10:42:11;;;;;;;;;;;;;;;30.39;63.98;98359.78;5040929;28;19928;-38
2022/06/19 10:44:52;;;;;;;;;;;;;;;30.78;59.94;98350.47;5027635;28;19940;-38
2022/06/19 10:47:17;;;;;;;;;;;;;;;30.22;61.06;98345.09;5021197;28;19928;-38
2022/06/19 10:50:01;;;;;;;;;;;;;;;29.22;63.13;98337.88;5043728;28;20321;-38
2022/06/19 10:52:28;;;;;;;;;;;;;;;29.55;67.21;98325.84;5041534;28;19939;-38
2022/06/19 10:55:05;;;;;;;;;;;;;;;32.11;55.39;98322.75;5021198;28;19928;-38
2022/06/19 10:57:30;;;;;;;;;;;;;;;32.50;51.28;98317.44;5024799;28;19921;-38
2022/06/19 10:59:56;;;;;;;;;;;;;;;30.82;54.00;98311.84;5040004;28;20816;-38
2022/06/19 11:05:19;;;;;;;;;;;;;;;30.34;59.25;98292.31;5025622;28;20006;-38
2022/06/19 11:07:44;;;;;;;;;;;;;;;32.54;57.16;98277.06;5024217;28;19925;-38
2022/06/19 11:10:28;;;;;;;;;;;;;;;30.25;60.68;98291.59;5041376;28;19928;-38
2022/06/19 11:12:56;;;;;;;;;;;;;;;32.73;54.59;98278.88;5022072;28;20376;-38
2022/06/19 11:15:21;;;;;;;;;;;;;;;31.68;54.92;98267.97;5020745;28;19921;-38
2022/06/19 11:17:46;;;;;;;;;;;;;;;30.32;63.91;98219.97;5043104;28;19931;-38
2022/06/19 11:20:20;;;;;;;;;;;;;;;30.57;61.74;98125.47;5044034;28;19967;-38
2022/06/19 11:22:46;;;;;;;;;;;;;;;28.66;81.56;98095.38;5038653;28;19982;-38
2022/06/19 11:25:21;;;;;;;;;;;;;;;29.74;82.56;98101.53;5021657;28;19924;-38
2022/06/19 11:27:53;;;;;;;;;;;;;;;29.49;89.59;98111.72;5043001;28;19916;-38
2022/06/19 11:30:32;;;;;;;;;;;;;;;30.36;81.91;98102.50;5042938;28;19927;-38
2022/06/19 11:32:57;;;;;;;;;;;;;;;31.37;78.35;98107.03;5044654;28;19929;-38
2022/06/19 11:35:23;;;;;;;;;;;;;;;32.28;70.25;98106.31;5038929;28;20603;-38
2022/06/19 11:37:53;;;;;;;;;;;;;;;29.38;74.79;98114.88;5041594;28;19916;-38
2022/06/19 11:40:38;;;;;;;;;;;;;;;31.63;74.75;98103.56;5019514;28;20011;-38
2022/06/19 11:43:05;;;;;;;;;;;;;;;30.05;76.30;98123.34;5044432;28;19936;-38
2022/06/19 11:45:34;;;;;;;;;;;;;;;29.74;74.48;98145.78;5040077;28;20072;-38
2022/06/19 11:48:05;;;;;;;;;;;;;;;29.38;76.36;98154.69;5025535;28;19937;-38
2022/06/19 11:50:33;;;;;;;;;;;;;;;30.94;70.54;98165.09;5038997;28;19963;-38
2022/06/19 11:52:59;;;;;;;;;;;;;;;32.04;67.14;98179.72;5040957;28;19925;-38
2022/06/19 11:55:31;;;;;;;;;;;;;;;31.52;64.46;98212.47;5044918;28;19924;-38
2022/06/19 11:57:58;;;;;;;;;;;;;;;31.54;66.38;98226.41;5041659;28;19917;-38
2022/06/19 12:00:24;;;;;;;;;;;;;;;33.22;60.91;98226.75;5023413;28;19917;-38
2022/06/19 12:02:52;;;;;;;;;;;;;;;33.52;56.97;98255.53;5026948;28;19916;-38
2022/06/19 12:05:25;;;;;;;;;;;;;;;32.11;61.03;98272.16;5040951;28;19936;-38
2022/06/19 12:07:50;;;;;;;;;;;;;;;31.26;65.53;98267.25;5007146;28;19925;-38
2022/06/19 12:10:20;;;;;;;;;;;;;;;31.97;65.11;98250.84;5041286;28;19925;-38
2022/06/19 12:12:53;;;;;;;;;;;;;;;33.68;52.90;98236.34;5026196;28;20378;-38
2022/06/19 12:15:26;;;;;;;;;;;;;;;32.39;60.14;98235.44;5044491;28;20057;-38
2022/06/19 12:17:56;;;;;;;;;;;;;;;32.26;60.25;98240.78;5024621;28;19924;-38
2022/06/19 12:20:24;;;;;;;;;;;;;;;33.28;53.98;98233.09;5043387;28;19917;-38
2022/06/19 12:23:09;;;;;;;;;;;;;;;31.57;61.90;98249.97;5042719;28;19920;-38
2022/06/19 12:25:41;;;;;;;;;;;;;;;31.96;60.81;98256.34;5026798;28;19925;-38
2022/06/19 12:28:15;;;;;;;;;;;;;;;31.24;66.23;98259.47;5041043;28;19920;-38
2022/06/19 12:30:52;;;;;;;;;;;;;;;29.87;71.63;98275.97;5041882;28;19917;-38
2022/06/19 12:33:23;;;;;;;;;;;;;;;30.45;70.86;98294.44;5043970;28;20746;-38
2022/06/19 12:35:49;;;;;;;;;;;;;;;30.46;73.96;98292.59;5037843;28;19945;-38
2022/06/19 12:38:15;;;;;;;;;;;;;;;30.87;72.19;98297.19;5040717;28;20795;-38
2022/06/19 12:40:49;;;;;;;;;;;;;;;31.72;63.06;98265.75;5021622;28;19931;-38
2022/06/19 12:43:17;;;;;;;;;;;;;;;30.48;66.09;98253.38;5024199;28;20489;-38
2022/06/19 12:45:45;;;;;;;;;;;;;;;31.27;66.69;98269.72;5026360;28;20012;-38
2022/06/19 12:48:10;;;;;;;;;;;;;;;30.14;70.98;98297.44;5025279;28;19928;-38
2022/06/19 12:50:44;;;;;;;;;;;;;;;29.27;76.65;98333.69;5039059;28;19916;-38
2022/06/19 12:53:28;;;;;;;;;;;;;;;29.58;75.36;98336.09;5042868;28;20305;-38
2022/06/19 12:56:01;;;;;;;;;;;;;;;30.35;74.29;98329.31;5026953;28;20015;-38
2022/06/19 12:58:27;;;;;;;;;;;;;;;29.72;73.95;98331.78;5046348;28;19931;-38
2022/06/19 13:00:52;;;;;;;;;;;;;;;30.01;76.53;98328.16;5045391;28;19921;-38